createdAt,value
2023-03-15T00:02:01.295Z,16.23
2023-03-15T00:04:28.818Z,16.03
2023-03-15T00:06:55.910Z,15.80
2023-03-15T00:09:24.180Z,14.50
2023-03-15T00:11:52.274Z,12.37
2023-03-15T00:14:19.053Z,12.93
2023-03-15T00:16:47.384Z,13.80
2023-03-15T00:19:14.307Z,9.87
2023-03-15T00:21:43.264Z,11.37
2023-03-15T00:24:11.565Z,11.80
2023-03-15T00:26:38.942Z,22.33
2023-03-15T00:29:08.556Z,8.50
2023-03-15T00:31:36.045Z,14.63
2023-03-15T00:34:03.144Z,11.90
2023-03-15T00:36:32.055Z,13.57
2023-03-15T00:38:58.768Z,17.63
2023-03-15T00:41:25.858Z,17.23
2023-03-15T00:43:52.952Z,14.60
2023-03-15T00:46:20.698Z,13.53
2023-03-15T00:48:49.710Z,13.43
2023-03-15T00:51:22.587Z,14.03
2023-03-15T00:53:51.599Z,17.37
2023-03-15T00:56:21.935Z,16.33
2023-03-15T00:58:49.353Z,15.43
2023-03-15T01:01:26.963Z,13.70
2023-03-15T01:03:54.272Z,18.13
2023-03-15T01:06:23.665Z,20.87
2023-03-15T01:08:51.588Z,13.43
2023-03-15T01:11:24.218Z,13.57
2023-03-15T01:13:52.425Z,13.33
2023-03-15T01:16:20.044Z,14.53
2023-03-15T01:18:46.934Z,16.87
2023-03-15T01:21:16.121Z,17.33
2023-03-15T01:23:45.850Z,13.13
2023-03-15T01:26:15.245Z,13.27
2023-03-15T01:28:43.944Z,14.33
2023-03-15T01:31:24.172Z,13.90
2023-03-15T01:33:51.344Z,15.57
2023-03-15T01:36:18.844Z,11.30
2023-03-15T01:38:46.508Z,16.93
2023-03-15T01:41:15.717Z,17.87
2023-03-15T01:43:52.270Z,17.90
2023-03-15T01:46:25.593Z,13.73
2023-03-15T01:49:17.835Z,12.23
2023-03-15T01:51:52.041Z,14.13
2023-03-15T01:54:26.122Z,12.67
2023-03-15T01:57:22.748Z,16.70
2023-03-15T01:59:53.969Z,19.87
2023-03-15T02:02:24.804Z,17.30
2023-03-15T02:04:59.003Z,17.17
2023-03-15T02:07:29.027Z,13.77
2023-03-15T02:10:04.350Z,22.73
2023-03-15T02:12:38.358Z,17.70
2023-03-15T02:15:06.124Z,17.73
2023-03-15T02:17:46.516Z,16.33
2023-03-15T02:20:42.500Z,20.10
2023-03-15T02:23:14.263Z,19.17
2023-03-15T02:25:49.196Z,22.47
2023-03-15T02:28:19.301Z,18.00
2023-03-15T02:30:47.354Z,16.87
2023-03-15T02:33:26.395Z,18.03
2023-03-15T02:35:53.793Z,18.50
2023-03-15T02:38:22.650Z,14.83
2023-03-15T02:40:52.923Z,15.93
2023-03-15T02:43:25.207Z,15.17
2023-03-15T02:45:53.747Z,13.27
2023-03-15T02:48:21.534Z,16.50
2023-03-15T02:50:48.422Z,22.07
2023-03-15T02:53:15.490Z,15.53
2023-03-15T02:55:42.227Z,18.17
2023-03-15T02:58:09.282Z,13.50
2023-03-15T03:00:36.158Z,21.17
2023-03-15T03:03:03.244Z,14.37
2023-03-15T03:05:31.611Z,17.27
2023-03-15T03:07:58.743Z,15.80
2023-03-15T03:10:26.595Z,14.67
2023-03-15T03:12:56.799Z,9.93
2023-03-15T03:15:30.847Z,19.97
2023-03-15T03:17:58.015Z,15.00
2023-03-15T03:20:25.242Z,21.00
2023-03-15T03:22:52.286Z,14.47
2023-03-15T03:25:19.119Z,18.53
2023-03-15T03:27:48.096Z,12.50
2023-03-15T03:30:15.939Z,20.13
2023-03-15T03:32:48.505Z,15.47
2023-03-15T03:35:16.214Z,21.90
2023-03-15T03:37:43.496Z,23.10
2023-03-15T03:40:15.292Z,17.00
2023-03-15T03:42:43.096Z,21.43
2023-03-15T03:45:10.494Z,28.33
2023-03-15T03:47:42.193Z,29.63
2023-03-15T03:50:11.466Z,25.33
2023-03-15T03:52:38.470Z,23.90
2023-03-15T03:55:09.819Z,22.10
2023-03-15T03:57:37.715Z,15.20
2023-03-15T04:00:10.917Z,15.43
2023-03-15T04:02:44.836Z,13.07
2023-03-15T04:05:15.117Z,15.73
2023-03-15T04:07:43.367Z,12.03
2023-03-15T04:10:14.867Z,13.10
2023-03-15T04:12:44.888Z,13.80
2023-03-15T04:15:13.466Z,15.13
2023-03-15T04:17:41.949Z,18.23
2023-03-15T04:20:13.040Z,20.67
2023-03-15T04:22:49.620Z,19.00
2023-03-15T04:25:39.679Z,13.13
2023-03-15T04:28:26.979Z,12.93
2023-03-15T04:31:16.055Z,15.40
2023-03-15T04:34:21.104Z,14.27
2023-03-15T04:37:01.037Z,20.00
2023-03-15T04:39:47.750Z,23.20
2023-03-15T04:42:26.086Z,12.03
2023-03-15T04:45:11.047Z,23.90
2023-03-15T04:47:37.878Z,16.27
2023-03-15T04:50:25.807Z,12.33
2023-03-15T04:53:14.527Z,26.27
2023-03-15T04:56:07.969Z,21.87
2023-03-15T04:58:34.770Z,10.60
2023-03-15T05:01:20.624Z,15.30
2023-03-15T05:04:05.115Z,23.43
2023-03-15T05:06:48.787Z,10.77
2023-03-15T05:09:39.795Z,12.10
2023-03-15T05:12:28.038Z,17.83
2023-03-15T05:15:13.835Z,19.33
2023-03-15T05:17:59.326Z,15.40
2023-03-15T05:20:58.040Z,21.57
2023-03-15T05:23:43.174Z,20.03
2023-03-15T05:26:28.607Z,19.67
2023-03-15T05:29:13.164Z,26.37
2023-03-15T05:32:00.262Z,16.07
2023-03-15T05:34:39.480Z,20.33
2023-03-15T05:37:44.444Z,19.53
2023-03-15T05:40:23.270Z,14.10
2023-03-15T05:43:10.493Z,13.80
2023-03-15T05:45:56.295Z,17.67
2023-03-15T05:48:43.572Z,15.07
2023-03-15T05:51:29.053Z,16.47
2023-03-15T05:54:09.321Z,13.57
2023-03-15T05:56:52.316Z,14.57
2023-03-15T05:59:32.085Z,11.80
2023-03-15T06:02:13.389Z,12.50
2023-03-15T06:04:48.435Z,8.00
2023-03-15T06:07:19.192Z,12.70
2023-03-15T06:09:46.306Z,20.47
2023-03-15T06:12:13.537Z,15.23
2023-03-15T06:14:41.326Z,11.13
2023-03-15T06:17:09.278Z,17.67
2023-03-15T06:19:37.838Z,15.53
2023-03-15T06:22:05.098Z,18.33
2023-03-15T06:24:40.791Z,15.07
2023-03-15T06:27:08.230Z,19.13
2023-03-15T06:29:36.024Z,21.23
2023-03-15T06:32:06.154Z,18.63
2023-03-15T06:34:35.151Z,19.80
2023-03-15T06:37:03.266Z,17.90
2023-03-15T06:39:30.442Z,19.03
2023-03-15T06:41:58.568Z,22.90
2023-03-15T06:44:27.701Z,15.67
2023-03-15T06:46:59.523Z,20.70
2023-03-15T06:49:27.386Z,15.37
2023-03-15T06:51:54.657Z,15.40
2023-03-15T06:54:23.039Z,21.67
2023-03-15T06:56:51.097Z,14.77
2023-03-15T06:59:17.907Z,15.23
2023-03-15T07:01:44.943Z,16.63
2023-03-15T07:04:11.780Z,12.57
2023-03-15T07:06:38.890Z,14.20
2023-03-15T07:09:06.037Z,14.87
2023-03-15T07:11:33.666Z,33.00
2023-03-15T07:14:00.422Z,27.50
2023-03-15T07:16:27.439Z,25.83
2023-03-15T07:18:56.157Z,26.40
2023-03-15T07:21:23.181Z,27.40
2023-03-15T07:23:49.869Z,33.50
2023-03-15T07:26:16.915Z,22.77
2023-03-15T07:28:44.796Z,22.47
2023-03-15T07:31:12.211Z,18.23
2023-03-15T07:33:39.539Z,20.40
2023-03-15T07:36:07.769Z,20.67
2023-03-15T07:38:35.238Z,18.40
2023-03-15T07:41:04.054Z,17.83
2023-03-15T07:43:31.277Z,16.17
2023-03-15T07:46:13.828Z,20.20
2023-03-15T07:48:41.107Z,21.83
2023-03-15T07:51:08.068Z,18.90
2023-03-15T07:53:34.827Z,15.03
2023-03-15T07:56:02.025Z,17.77
2023-03-15T07:58:28.815Z,15.90
2023-03-15T08:00:56.915Z,22.43
2023-03-15T08:03:24.848Z,19.83
2023-03-15T08:05:51.876Z,17.67
2023-03-15T08:08:19.130Z,17.97
2023-03-15T08:10:46.340Z,16.13
2023-03-15T08:13:13.662Z,15.10
2023-03-15T08:15:41.633Z,18.57
2023-03-15T08:18:08.590Z,21.60
2023-03-15T08:20:35.654Z,19.73
2023-03-15T08:23:02.475Z,20.03
2023-03-15T08:25:30.146Z,22.17
2023-03-15T08:27:56.950Z,19.23
2023-03-15T08:30:24.138Z,17.13
2023-03-15T08:32:52.586Z,19.80
2023-03-15T08:35:21.791Z,18.47
2023-03-15T08:37:49.645Z,14.63
2023-03-15T08:40:23.729Z,15.70
2023-03-15T08:42:51.586Z,16.43
2023-03-15T08:45:19.402Z,18.53
2023-03-15T08:47:46.523Z,17.63
2023-03-15T08:50:15.554Z,16.70
2023-03-15T08:52:43.006Z,19.33
2023-03-15T08:55:10.940Z,20.13
2023-03-15T08:57:37.674Z,22.57
2023-03-15T09:00:09.315Z,24.03
2023-03-15T09:02:37.340Z,21.13
2023-03-15T09:05:07.079Z,14.87
2023-03-15T09:07:34.467Z,18.47
2023-03-15T09:10:03.497Z,26.10
2023-03-15T09:12:32.182Z,18.30
2023-03-15T09:14:59.159Z,20.87
2023-03-15T09:17:26.097Z,23.13
2023-03-15T09:19:53.091Z,22.43
2023-03-15T09:22:34.824Z,17.80
2023-03-15T09:25:05.858Z,18.33
2023-03-15T09:27:33.274Z,23.73
2023-03-15T09:30:00.290Z,22.50
2023-03-15T09:32:27.397Z,18.33
2023-03-15T09:34:54.422Z,19.27
2023-03-15T09:37:22.015Z,21.63
2023-03-15T09:39:49.085Z,24.70
2023-03-15T09:42:30.864Z,23.50
2023-03-15T09:45:26.611Z,15.43
2023-03-15T09:48:05.575Z,24.43
2023-03-15T09:50:40.189Z,21.83
2023-03-15T09:53:14.276Z,11.03
2023-03-15T09:55:43.509Z,15.43
2023-03-15T09:58:21.434Z,20.77
2023-03-15T10:00:56.587Z,20.60
2023-03-15T10:03:32.419Z,23.80
2023-03-15T10:06:05.624Z,18.30
2023-03-15T10:08:32.709Z,20.37
2023-03-15T10:11:23.411Z,18.03
2023-03-15T10:14:06.856Z,16.33
2023-03-15T10:16:42.694Z,18.53
2023-03-15T10:19:18.896Z,18.50
2023-03-15T10:21:56.260Z,20.47
2023-03-15T10:24:34.410Z,12.77
2023-03-15T10:27:16.343Z,13.07
2023-03-15T10:29:44.312Z,14.33
2023-03-15T10:32:17.934Z,13.53
2023-03-15T10:34:52.108Z,15.13
2023-03-15T10:37:20.116Z,18.13
2023-03-15T10:39:49.458Z,10.87
2023-03-15T10:42:26.705Z,12.63
2023-03-15T10:44:53.533Z,16.63
2023-03-15T10:47:25.924Z,21.60
2023-03-15T10:49:58.341Z,14.77
2023-03-15T10:52:36.941Z,17.00
2023-03-15T10:55:17.313Z,12.80
2023-03-15T10:57:57.116Z,15.10
2023-03-15T11:00:31.166Z,17.47
2023-03-15T11:03:16.844Z,13.57
2023-03-15T11:05:47.033Z,12.13
2023-03-15T11:08:17.865Z,15.73
2023-03-15T11:10:46.286Z,19.87
2023-03-15T11:13:22.295Z,16.63
2023-03-15T11:16:05.819Z,21.17
2023-03-15T11:18:37.565Z,15.30
2023-03-15T11:21:10.422Z,16.93
2023-03-15T11:23:40.493Z,19.53
2023-03-15T11:26:25.775Z,24.73
2023-03-15T11:29:17.931Z,20.93
2023-03-15T11:31:45.124Z,16.60
2023-03-15T11:34:21.910Z,18.10
2023-03-15T11:37:02.107Z,16.43
2023-03-15T11:39:58.756Z,22.03
2023-03-15T11:42:35.765Z,19.10
2023-03-15T11:45:10.810Z,16.20
2023-03-15T11:47:47.316Z,14.97
2023-03-15T11:50:15.819Z,12.27
2023-03-15T11:52:47.678Z,25.70
2023-03-15T11:55:26.369Z,15.70
2023-03-15T11:57:54.748Z,15.33
2023-03-15T12:00:36.408Z,14.13
2023-03-15T12:03:23.842Z,13.47
2023-03-15T12:06:04.283Z,10.63
2023-03-15T12:08:34.650Z,13.47
2023-03-15T12:11:09.796Z,14.70
2023-03-15T12:13:36.868Z,17.17
2023-03-15T12:16:06.212Z,9.93
2023-03-15T12:18:41.783Z,13.90
2023-03-15T12:21:32.586Z,13.20
2023-03-15T12:24:06.161Z,13.83
2023-03-15T12:26:41.417Z,14.63
2023-03-15T12:29:15.692Z,12.17
2023-03-15T12:31:44.925Z,12.37
2023-03-15T12:34:22.995Z,13.70
2023-03-15T12:36:53.079Z,19.43
2023-03-15T12:39:38.229Z,14.33
2023-03-15T12:42:05.400Z,13.23
2023-03-15T12:44:32.595Z,33.23
2023-03-15T12:47:04.536Z,12.67
2023-03-15T12:49:42.891Z,14.37
2023-03-15T12:52:15.916Z,14.90
2023-03-15T12:54:53.976Z,18.80
2023-03-15T12:57:37.002Z,17.77
2023-03-15T13:00:14.658Z,23.67
2023-03-15T13:02:48.129Z,20.00
2023-03-15T13:05:30.905Z,16.33
2023-03-15T13:07:59.021Z,12.40
2023-03-15T13:10:50.804Z,16.43
2023-03-15T13:13:29.880Z,13.53
2023-03-15T13:16:15.447Z,12.80
2023-03-15T13:19:19.835Z,15.33
2023-03-15T13:22:21.567Z,14.67
2023-03-15T13:25:04.783Z,11.73
2023-03-15T13:28:01.831Z,12.53
2023-03-15T13:30:28.471Z,11.50
2023-03-15T13:33:09.218Z,12.97
2023-03-15T13:35:55.765Z,16.27
2023-03-15T13:38:24.469Z,13.83
2023-03-15T13:40:51.365Z,12.53
2023-03-15T13:43:18.529Z,11.70
2023-03-15T13:45:45.722Z,9.67
2023-03-15T13:48:13.394Z,13.10
2023-03-15T13:50:40.923Z,6.37
2023-03-15T13:53:07.946Z,8.77
2023-03-15T13:55:36.162Z,8.00
2023-03-15T13:58:08.546Z,18.70
2023-03-15T14:00:37.076Z,9.15
2023-03-15T14:03:09.103Z,7.90
2023-03-15T14:05:45.742Z,13.35
2023-03-15T14:08:27.360Z,12.40
2023-03-15T14:10:59.885Z,12.87
2023-03-15T14:13:33.092Z,12.07
2023-03-15T14:16:01.668Z,9.70
2023-03-15T14:18:37.042Z,11.30
2023-03-15T14:21:15.869Z,12.70
2023-03-15T14:23:46.666Z,8.93
2023-03-15T14:26:19.120Z,15.23
2023-03-15T14:29:15.222Z,13.23
2023-03-15T14:31:48.614Z,11.57
2023-03-15T14:34:23.838Z,5.63
2023-03-15T14:36:54.135Z,8.23
2023-03-15T14:39:30.404Z,10.57
2023-03-15T14:41:57.293Z,10.57
2023-03-15T14:44:24.452Z,12.37
2023-03-15T14:46:51.294Z,14.97
2023-03-15T14:49:26.521Z,11.23
2023-03-15T14:51:59.107Z,7.40
2023-03-15T14:54:26.605Z,9.13
2023-03-15T14:56:53.301Z,15.03
2023-03-15T14:59:20.423Z,17.23
2023-03-15T15:01:51.499Z,10.60
2023-03-15T15:04:19.871Z,7.23
2023-03-15T15:06:51.174Z,8.53
2023-03-15T15:09:23.153Z,11.27
2023-03-15T15:11:51.280Z,12.20
2023-03-15T15:14:18.941Z,11.37
2023-03-15T15:16:46.026Z,13.23
2023-03-15T15:19:14.145Z,15.80
2023-03-15T15:21:42.906Z,20.67
2023-03-15T15:24:16.605Z,15.07
2023-03-15T15:26:43.792Z,10.50
2023-03-15T15:29:14.299Z,15.17
2023-03-15T15:31:42.244Z,14.37
2023-03-15T15:34:10.509Z,15.87
2023-03-15T15:36:42.833Z,15.80
2023-03-15T15:39:29.533Z,13.80
2023-03-15T15:41:56.432Z,11.67
2023-03-15T15:44:25.628Z,13.07
2023-03-15T15:46:52.589Z,11.70
2023-03-15T15:49:21.011Z,14.17
2023-03-15T15:51:52.029Z,15.17
2023-03-15T15:54:24.704Z,14.93
2023-03-15T15:56:59.531Z,14.20
2023-03-15T15:59:27.171Z,12.17
2023-03-15T16:02:03.104Z,10.83
2023-03-15T16:04:31.316Z,11.00
2023-03-15T16:07:04.769Z,14.73
2023-03-15T16:09:40.615Z,14.57
2023-03-15T16:12:14.724Z,15.80
2023-03-15T16:14:42.459Z,14.80
2023-03-15T16:17:17.040Z,15.73
2023-03-15T16:19:44.326Z,14.23
2023-03-15T16:22:11.313Z,24.33
2023-03-15T16:24:44.080Z,18.47
2023-03-15T16:27:16.288Z,24.93
2023-03-15T16:29:48.620Z,32.50
2023-03-15T16:32:26.719Z,23.13
2023-03-15T16:35:01.346Z,27.77
2023-03-15T16:37:32.669Z,29.40
2023-03-15T16:40:01.645Z,26.70
2023-03-15T16:42:28.699Z,26.30
2023-03-15T16:44:55.670Z,26.30
2023-03-15T16:47:22.410Z,29.13
2023-03-15T16:49:49.418Z,37.70
2023-03-15T16:52:17.111Z,20.97
2023-03-15T16:54:47.545Z,22.80
2023-03-15T16:57:23.078Z,23.13
2023-03-15T16:59:51.340Z,18.23
2023-03-15T17:02:21.485Z,10.00
2023-03-15T17:04:49.538Z,13.37
2023-03-15T17:07:17.543Z,12.93
2023-03-15T17:09:47.527Z,11.60
2023-03-15T17:12:21.343Z,29.67
2023-03-15T17:14:48.612Z,45.20
2023-03-15T17:17:15.321Z,41.27
2023-03-15T17:19:43.867Z,33.33
2023-03-15T17:22:11.878Z,26.77
2023-03-15T17:24:39.975Z,29.97
2023-03-15T17:27:14.430Z,22.23
2023-03-15T17:29:42.428Z,20.17
2023-03-15T17:32:12.972Z,20.23
2023-03-15T17:34:40.084Z,20.03
2023-03-15T17:37:08.517Z,23.40
2023-03-15T17:39:35.584Z,25.80
2023-03-15T17:42:02.479Z,24.10
2023-03-15T17:44:29.504Z,20.83
2023-03-15T17:46:56.287Z,26.70
2023-03-15T17:49:23.290Z,26.57
2023-03-15T17:51:50.486Z,30.33
2023-03-15T17:54:18.769Z,49.20
2023-03-15T17:56:45.602Z,88.93
2023-03-15T17:59:13.402Z,98.20
2023-03-15T18:01:43.497Z,52.27
2023-03-15T18:04:13.250Z,60.97
2023-03-15T18:06:40.082Z,53.03
2023-03-15T18:09:09.316Z,53.77
2023-03-15T18:11:36.611Z,43.23
2023-03-15T18:14:04.984Z,55.77
2023-03-15T18:16:32.207Z,49.63
2023-03-15T18:18:59.321Z,21.53
2023-03-15T18:21:27.746Z,21.33
2023-03-15T18:23:55.341Z,16.73
2023-03-15T18:26:22.943Z,16.00
2023-03-15T18:28:51.411Z,15.00
2023-03-15T18:31:21.428Z,15.40
2023-03-15T18:33:49.982Z,11.40
2023-03-15T18:36:17.668Z,13.03
2023-03-15T18:38:45.350Z,10.87
2023-03-15T18:41:21.254Z,12.00
2023-03-15T18:43:52.123Z,14.67
2023-03-15T18:46:21.894Z,15.77
2023-03-15T18:48:49.931Z,15.17
2023-03-15T18:51:17.462Z,15.53
2023-03-15T18:53:44.885Z,15.83
2023-03-15T18:56:21.295Z,18.53
2023-03-15T18:58:50.237Z,20.53
2023-03-15T19:01:19.411Z,13.63
2023-03-15T19:03:46.462Z,14.73
2023-03-15T19:06:13.752Z,11.30
2023-03-15T19:08:41.040Z,15.50
2023-03-15T19:11:08.473Z,10.10
2023-03-15T19:13:35.738Z,10.63
2023-03-15T19:16:03.420Z,10.50
2023-03-15T19:18:32.343Z,13.43
2023-03-15T19:20:59.319Z,9.93
2023-03-15T19:23:26.541Z,14.40
2023-03-15T19:25:53.540Z,11.33
2023-03-15T19:28:20.538Z,12.10
2023-03-15T19:30:47.336Z,11.53
2023-03-15T19:33:14.364Z,11.23
2023-03-15T19:35:41.105Z,12.80
2023-03-15T19:38:08.132Z,9.93
2023-03-15T19:40:36.404Z,15.87
2023-03-15T19:43:03.517Z,11.70
2023-03-15T19:45:30.364Z,12.73
2023-03-15T19:47:57.568Z,19.50
2023-03-15T19:50:24.550Z,19.53
2023-03-15T19:52:51.539Z,14.67
2023-03-15T19:55:20.788Z,14.40
2023-03-15T19:57:48.018Z,18.90
2023-03-15T20:00:16.573Z,18.70
2023-03-15T20:02:44.552Z,16.17
2023-03-15T20:05:15.255Z,14.57
2023-03-15T20:07:43.478Z,16.47
2023-03-15T20:10:11.607Z,21.33
2023-03-15T20:12:42.319Z,20.53
2023-03-15T20:15:10.839Z,24.97
2023-03-15T20:17:39.060Z,15.70
2023-03-15T20:20:10.941Z,24.00
2023-03-15T20:22:41.062Z,20.63
2023-03-15T20:25:10.218Z,25.80
2023-03-15T20:27:37.655Z,27.77
2023-03-15T20:30:06.293Z,17.07
2023-03-15T20:32:33.361Z,21.50
2023-03-15T20:35:01.183Z,23.00
2023-03-15T20:37:31.040Z,24.17
2023-03-15T20:39:57.839Z,28.87
2023-03-15T20:42:25.255Z,26.37
2023-03-15T20:44:52.749Z,27.43
2023-03-15T20:47:19.791Z,31.47
2023-03-15T20:49:46.656Z,32.00
2023-03-15T20:52:13.659Z,40.63
2023-03-15T20:54:40.584Z,37.50
2023-03-15T20:57:07.718Z,34.60
2023-03-15T20:59:34.447Z,33.40
2023-03-15T21:02:02.760Z,27.43
2023-03-15T21:04:30.517Z,32.13
2023-03-15T21:07:03.985Z,37.03
2023-03-15T21:09:32.090Z,30.53
2023-03-15T21:12:00.118Z,32.33
2023-03-15T21:14:27.296Z,29.37
2023-03-15T21:16:54.368Z,28.60
2023-03-15T21:19:22.842Z,25.70
2023-03-15T21:21:49.879Z,29.93
2023-03-15T21:24:16.609Z,22.90
2023-03-15T21:26:44.762Z,30.53
2023-03-15T21:29:12.332Z,23.97
2023-03-15T21:31:39.467Z,19.83
2023-03-15T21:34:06.512Z,22.10
2023-03-15T21:36:33.685Z,21.83
2023-03-15T21:39:01.477Z,17.60
2023-03-15T21:41:28.577Z,16.03
2023-03-15T21:43:55.455Z,20.60
2023-03-15T21:46:22.600Z,21.07
2023-03-15T21:48:49.533Z,22.27
2023-03-15T21:51:16.679Z,25.93
2023-03-15T21:53:46.215Z,25.33
2023-03-15T21:56:13.878Z,21.00
2023-03-15T21:58:41.909Z,21.87
2023-03-15T22:01:09.531Z,29.33
2023-03-15T22:03:36.864Z,31.83
2023-03-15T22:06:03.992Z,31.90
2023-03-15T22:08:30.928Z,26.80
2023-03-15T22:10:58.995Z,31.90
2023-03-15T22:13:26.834Z,31.03
2023-03-15T22:15:54.614Z,26.70
2023-03-15T22:18:21.680Z,27.57
2023-03-15T22:20:51.009Z,27.10
2023-03-15T22:23:18.761Z,23.47
2023-03-15T22:25:46.224Z,24.00
2023-03-15T22:28:13.773Z,23.13
2023-03-15T22:30:41.739Z,25.40
2023-03-15T22:33:08.957Z,19.90
2023-03-15T22:35:36.005Z,20.30
2023-03-15T22:38:09.954Z,25.57
2023-03-15T22:40:39.524Z,25.40
2023-03-15T22:43:07.765Z,22.00
2023-03-15T22:45:34.849Z,21.43
2023-03-15T22:48:01.658Z,18.70
2023-03-15T22:50:28.901Z,24.20
2023-03-15T22:52:55.664Z,22.50
2023-03-15T22:55:22.868Z,25.00
2023-03-15T22:57:49.673Z,24.27
2023-03-15T23:00:21.129Z,27.03
2023-03-15T23:02:47.989Z,19.17
2023-03-15T23:05:15.247Z,25.03
2023-03-15T23:07:42.183Z,22.87
2023-03-15T23:10:11.334Z,24.53
2023-03-15T23:12:38.175Z,21.37
2023-03-15T23:15:05.854Z,30.47
2023-03-15T23:17:32.667Z,24.47
2023-03-15T23:19:59.869Z,22.53
2023-03-15T23:22:26.585Z,17.77
2023-03-15T23:24:57.810Z,22.00
2023-03-15T23:27:26.122Z,22.00
2023-03-15T23:29:54.864Z,25.63
2023-03-15T23:32:24.029Z,24.47
2023-03-15T23:34:51.177Z,24.20
2023-03-15T23:37:17.944Z,23.13
2023-03-15T23:39:45.022Z,23.93
2023-03-15T23:42:12.436Z,28.30
2023-03-15T23:44:39.597Z,23.03
2023-03-15T23:47:06.542Z,23.47
2023-03-15T23:49:34.006Z,27.40
2023-03-15T23:52:05.816Z,27.10
2023-03-15T23:54:39.418Z,26.63
2023-03-15T23:57:07.619Z,25.90
2023-03-15T23:59:36.117Z,24.63
